createdAt,value
2017-12-17T00:02:16.096Z,74.70
2017-12-17T00:04:44.414Z,75.30
2017-12-17T00:07:11.926Z,74.50
2017-12-17T00:09:39.441Z,74.40
2017-12-17T00:12:06.983Z,74.40
2017-12-17T00:14:34.501Z,74.10
2017-12-17T00:17:02.006Z,74.50
2017-12-17T00:19:29.549Z,75.40
2017-12-17T00:21:57.064Z,74.40
2017-12-17T00:24:24.580Z,74.40
2017-12-17T00:26:52.092Z,74.40
2017-12-17T00:29:20.373Z,74.10
2017-12-17T00:31:48.674Z,74.10
2017-12-17T00:34:16.187Z,74.10
2017-12-17T00:36:43.712Z,74.00
2017-12-17T00:39:11.205Z,74.10
2017-12-17T00:41:40.222Z,73.70
2017-12-17T00:44:07.758Z,73.70
2017-12-17T00:46:35.280Z,73.40
2017-12-17T00:49:02.800Z,74.10
2017-12-17T00:51:30.317Z,73.40
2017-12-17T00:53:57.828Z,73.20
2017-12-17T00:56:25.334Z,73.20
2017-12-17T00:58:52.844Z,73.20
2017-12-17T01:01:20.393Z,73.10
2017-12-17T01:03:47.910Z,72.90
2017-12-17T01:06:15.406Z,72.90
2017-12-17T01:08:42.917Z,72.90
2017-12-17T01:11:10.423Z,72.80
2017-12-17T01:13:37.953Z,72.40
2017-12-17T01:16:06.209Z,72.60
2017-12-17T01:18:33.723Z,72.40
2017-12-17T01:21:01.306Z,72.40
2017-12-17T01:23:28.997Z,72.40
2017-12-17T01:25:56.518Z,72.30
2017-12-17T01:28:24.008Z,72.30
2017-12-17T01:30:51.549Z,72.40
2017-12-17T01:33:19.061Z,72.50
2017-12-17T01:35:46.549Z,72.70
2017-12-17T01:38:14.066Z,72.70
2017-12-17T01:40:42.323Z,72.60
2017-12-17T01:43:09.856Z,72.60
2017-12-17T01:45:37.365Z,72.80
2017-12-17T01:48:04.863Z,72.70
2017-12-17T01:50:32.370Z,72.70
2017-12-17T01:53:00.632Z,72.80
2017-12-17T01:55:28.920Z,73.10
2017-12-17T01:57:57.235Z,73.30
2017-12-17T02:00:24.733Z,73.30
2017-12-17T02:02:53.019Z,73.40
2017-12-17T02:05:21.278Z,73.50
2017-12-17T02:07:48.801Z,73.40
2017-12-17T02:10:16.291Z,73.40
2017-12-17T02:12:43.812Z,73.40
2017-12-17T02:15:11.312Z,73.50
2017-12-17T02:17:38.827Z,73.40
2017-12-17T02:20:06.324Z,73.50
2017-12-17T02:22:34.629Z,73.50
2017-12-17T02:25:02.158Z,73.50
2017-12-17T02:27:29.730Z,73.50
2017-12-17T02:29:58.021Z,73.50
2017-12-17T02:32:25.540Z,73.60
2017-12-17T02:34:53.051Z,73.40
2017-12-17T02:37:20.545Z,73.60
2017-12-17T02:39:48.073Z,73.50
2017-12-17T02:42:15.623Z,73.70
2017-12-17T02:44:43.107Z,73.70
2017-12-17T02:47:10.643Z,73.60
2017-12-17T02:49:38.206Z,73.70
2017-12-17T02:52:05.725Z,73.60
2017-12-17T02:54:33.992Z,73.40
2017-12-17T02:57:02.310Z,74.20
2017-12-17T02:59:29.801Z,73.50
2017-12-17T03:01:57.285Z,73.60
2017-12-17T03:04:25.634Z,73.40
2017-12-17T03:06:53.088Z,73.20
2017-12-17T03:09:20.623Z,73.20
2017-12-17T03:11:48.132Z,73.20
2017-12-17T03:14:15.622Z,72.90
2017-12-17T03:16:43.159Z,73.10
2017-12-17T03:19:10.665Z,73.10
2017-12-17T03:21:38.147Z,73.10
2017-12-17T03:24:05.660Z,73.00
2017-12-17T03:26:33.168Z,72.80
2017-12-17T03:29:00.695Z,72.90
2017-12-17T03:31:28.214Z,72.80
2017-12-17T03:33:55.761Z,72.70
2017-12-17T03:36:24.035Z,72.50
2017-12-17T03:38:52.291Z,72.40
2017-12-17T03:41:19.806Z,72.30
2017-12-17T03:43:47.312Z,72.40
2017-12-17T03:46:15.585Z,72.70
2017-12-17T03:48:43.852Z,72.20
2017-12-17T03:51:11.373Z,72.20
2017-12-17T03:53:38.860Z,72.00
2017-12-17T03:56:06.364Z,71.90
2017-12-17T03:58:33.867Z,72.10
2017-12-17T04:01:01.355Z,72.00
2017-12-17T04:03:29.630Z,71.60
2017-12-17T04:05:57.879Z,71.70
2017-12-17T04:08:25.397Z,71.50
2017-12-17T04:10:52.944Z,71.70
2017-12-17T04:13:20.436Z,71.70
2017-12-17T04:15:47.966Z,71.60
2017-12-17T04:18:15.452Z,71.30
2017-12-17T04:20:42.941Z,71.20
2017-12-17T04:23:11.240Z,71.50
2017-12-17T04:25:38.743Z,71.40
2017-12-17T04:28:06.268Z,71.40
2017-12-17T04:30:33.765Z,71.30
2017-12-17T04:33:01.279Z,71.10
2017-12-17T04:35:28.797Z,71.10
2017-12-17T04:37:56.290Z,70.90
2017-12-17T04:40:23.801Z,71.20
2017-12-17T04:42:51.320Z,70.80
2017-12-17T04:45:18.849Z,70.70
2017-12-17T04:47:47.280Z,70.60
2017-12-17T04:50:14.812Z,70.60
2017-12-17T04:52:42.345Z,70.50
2017-12-17T04:55:10.611Z,70.30
2017-12-17T04:57:38.867Z,70.30
2017-12-17T05:00:06.384Z,70.30
2017-12-17T05:02:33.873Z,70.30
2017-12-17T05:05:01.397Z,70.40
2017-12-17T05:07:28.937Z,70.50
2017-12-17T05:09:56.421Z,70.50
2017-12-17T05:12:23.908Z,70.20
2017-12-17T05:14:51.440Z,70.20
2017-12-17T05:17:18.936Z,70.10
2017-12-17T05:19:46.460Z,70.10
2017-12-17T05:22:13.948Z,70.00
2017-12-17T05:24:41.440Z,70.20
2017-12-17T05:27:08.948Z,70.50
2017-12-17T05:29:36.455Z,70.10
2017-12-17T05:32:03.953Z,70.00
2017-12-17T05:34:31.448Z,69.90
2017-12-17T05:36:58.976Z,69.90
2017-12-17T05:39:26.470Z,70.00
2017-12-17T05:41:53.961Z,70.10
2017-12-17T05:44:21.491Z,70.10
2017-12-17T05:46:48.995Z,70.20
2017-12-17T05:49:16.553Z,70.00
2017-12-17T05:51:44.076Z,69.80
2017-12-17T05:54:11.584Z,69.70
2017-12-17T05:56:39.111Z,69.70
2017-12-17T05:59:06.620Z,69.50
2017-12-17T06:01:34.917Z,69.20
2017-12-17T06:04:02.428Z,69.20
2017-12-17T06:06:30.697Z,69.20
2017-12-17T06:08:58.216Z,69.20
2017-12-17T06:11:25.716Z,69.10
2017-12-17T06:13:53.229Z,69.00
2017-12-17T06:16:20.720Z,67.70
2017-12-17T06:18:48.207Z,67.80
2017-12-17T06:21:15.790Z,67.80
2017-12-17T06:23:43.280Z,67.90
2017-12-17T06:26:10.812Z,67.80
2017-12-17T06:28:38.312Z,67.40
2017-12-17T06:31:05.801Z,67.60
2017-12-17T06:33:34.091Z,67.70
2017-12-17T06:36:01.592Z,67.70
2017-12-17T06:38:29.111Z,67.70
2017-12-17T06:40:56.657Z,67.70
2017-12-17T06:43:24.938Z,67.80
2017-12-17T06:45:53.299Z,67.50
2017-12-17T06:48:21.588Z,67.70
2017-12-17T06:50:49.868Z,67.60
2017-12-17T06:53:17.361Z,67.50
2017-12-17T06:55:44.881Z,67.50
2017-12-17T06:58:12.381Z,67.40
2017-12-17T07:00:39.916Z,67.50
2017-12-17T07:03:07.439Z,67.50
2017-12-17T07:05:35.694Z,67.20
2017-12-17T07:08:03.196Z,67.30
2017-12-17T07:10:30.708Z,67.10
2017-12-17T07:12:58.231Z,66.90
2017-12-17T07:15:25.769Z,66.40
2017-12-17T07:17:53.249Z,66.80
2017-12-17T07:20:20.741Z,66.50
2017-12-17T07:22:48.258Z,66.30
2017-12-17T07:25:15.753Z,66.40
2017-12-17T07:27:43.274Z,66.50
2017-12-17T07:30:10.765Z,66.40
2017-12-17T07:32:38.260Z,66.30
2017-12-17T07:35:05.763Z,66.50
2017-12-17T07:37:33.288Z,66.80
2017-12-17T07:40:00.815Z,66.90
2017-12-17T07:42:29.083Z,67.00
2017-12-17T07:44:57.358Z,67.90
2017-12-17T07:47:25.640Z,66.80
2017-12-17T07:49:54.040Z,66.80
2017-12-17T07:52:21.561Z,66.70
2017-12-17T07:54:49.079Z,66.20
2017-12-17T07:57:16.596Z,66.20
2017-12-17T07:59:44.885Z,66.20
2017-12-17T08:02:12.381Z,66.10
2017-12-17T08:04:39.935Z,66.40
2017-12-17T08:07:07.421Z,66.40
2017-12-17T08:09:34.916Z,66.30
2017-12-17T08:12:02.442Z,66.30
2017-12-17T08:14:29.941Z,66.30
2017-12-17T08:16:57.447Z,66.20
2017-12-17T08:19:24.948Z,66.30
2017-12-17T08:21:52.507Z,66.70
2017-12-17T08:24:19.999Z,66.20
2017-12-17T08:26:47.520Z,65.90
2017-12-17T08:29:15.052Z,65.70
2017-12-17T08:31:43.387Z,66.00
2017-12-17T08:34:10.952Z,65.80
2017-12-17T08:36:38.439Z,65.40
2017-12-17T08:39:05.980Z,65.60
2017-12-17T08:41:33.486Z,65.70
2017-12-17T08:44:00.980Z,65.80
2017-12-17T08:46:28.509Z,65.90
2017-12-17T08:48:56.036Z,65.70
2017-12-17T08:51:24.338Z,65.70
2017-12-17T08:53:51.840Z,65.70
2017-12-17T08:56:19.329Z,65.60
2017-12-17T08:58:47.632Z,65.80
2017-12-17T09:01:15.137Z,65.80
2017-12-17T09:03:42.676Z,65.80
2017-12-17T09:06:10.208Z,66.00
2017-12-17T09:08:37.742Z,66.10
2017-12-17T09:11:05.244Z,65.80
2017-12-17T09:13:32.745Z,64.70
2017-12-17T09:16:00.298Z,63.80
2017-12-17T09:18:28.572Z,63.60
2017-12-17T09:20:56.885Z,63.40
2017-12-17T09:23:24.408Z,63.30
2017-12-17T09:25:52.686Z,63.20
2017-12-17T09:28:20.992Z,61.90
2017-12-17T09:30:48.496Z,61.90
2017-12-17T09:33:16.000Z,61.60
2017-12-17T09:35:43.569Z,61.30
2017-12-17T09:38:11.081Z,60.70
2017-12-17T09:40:38.585Z,60.80
2017-12-17T09:43:06.107Z,60.70
2017-12-17T09:45:33.611Z,60.40
2017-12-17T09:48:01.145Z,60.10
2017-12-17T09:50:28.673Z,60.10
2017-12-17T09:52:56.309Z,60.50
2017-12-17T09:55:23.798Z,59.70
2017-12-17T09:57:52.085Z,59.10
2017-12-17T10:00:20.389Z,58.80
2017-12-17T10:02:47.904Z,58.80
2017-12-17T10:05:16.204Z,58.00
2017-12-17T10:07:43.701Z,58.00
2017-12-17T10:10:11.244Z,58.00
2017-12-17T10:12:38.756Z,57.80
2017-12-17T10:15:07.046Z,57.60
2017-12-17T10:17:35.311Z,58.00
2017-12-17T10:20:03.589Z,57.60
2017-12-17T10:22:31.892Z,57.50
2017-12-17T10:24:59.397Z,57.40
2017-12-17T10:27:26.928Z,57.20
2017-12-17T10:29:54.440Z,57.30
2017-12-17T10:32:22.705Z,57.50
2017-12-17T10:34:51.041Z,57.40
2017-12-17T10:37:18.549Z,57.30
2017-12-17T10:39:46.846Z,57.80
2017-12-17T10:42:14.351Z,57.80
2017-12-17T10:44:41.898Z,57.20
2017-12-17T10:47:09.397Z,57.00
2017-12-17T10:49:37.698Z,56.20
2017-12-17T10:52:05.196Z,56.20
2017-12-17T10:54:32.692Z,56.50
2017-12-17T10:57:00.243Z,56.60
2017-12-17T10:59:28.520Z,57.00
2017-12-17T11:01:56.816Z,57.20
2017-12-17T11:04:24.325Z,57.10
2017-12-17T11:06:51.851Z,56.60
2017-12-17T11:09:19.357Z,56.10
2017-12-17T11:11:47.669Z,55.30
2017-12-17T11:14:15.180Z,55.30
2017-12-17T11:16:42.697Z,55.20
2017-12-17T11:19:10.214Z,55.50
2017-12-17T11:21:38.536Z,55.80
2017-12-17T11:24:06.046Z,55.70
2017-12-17T11:26:34.385Z,56.20
2017-12-17T11:29:01.929Z,56.20
2017-12-17T11:31:29.435Z,56.30
2017-12-17T11:33:57.756Z,55.90
2017-12-17T11:36:25.275Z,55.90
2017-12-17T11:38:53.593Z,56.60
2017-12-17T11:41:21.160Z,56.50
2017-12-17T11:43:48.739Z,56.60
2017-12-17T11:46:16.274Z,56.70
2017-12-17T11:48:43.812Z,56.80
2017-12-17T11:51:11.321Z,56.60
2017-12-17T11:53:39.639Z,56.90
2017-12-17T11:56:07.956Z,57.40
2017-12-17T11:58:35.462Z,57.40
2017-12-17T12:01:02.974Z,57.00
2017-12-17T12:03:30.505Z,57.20
2017-12-17T12:05:58.016Z,57.30
2017-12-17T12:08:26.309Z,57.10
2017-12-17T12:10:53.823Z,57.00
2017-12-17T12:13:21.372Z,57.90
2017-12-17T12:15:49.010Z,57.10
2017-12-17T12:18:16.549Z,57.20
2017-12-17T12:20:44.052Z,57.30
2017-12-17T12:23:11.590Z,57.10
2017-12-17T12:25:39.086Z,57.20
2017-12-17T12:28:06.654Z,57.00
2017-12-17T12:30:34.956Z,57.50
2017-12-17T12:33:02.473Z,57.40
2017-12-17T12:35:30.018Z,57.30
2017-12-17T12:37:57.530Z,57.30
2017-12-17T12:40:25.067Z,57.50
2017-12-17T12:42:53.360Z,57.50
2017-12-17T12:45:20.869Z,57.50
2017-12-17T12:47:48.414Z,57.70
2017-12-17T12:50:15.913Z,57.80
2017-12-17T12:52:44.213Z,57.60
2017-12-17T12:55:11.714Z,57.60
2017-12-17T12:57:39.281Z,57.60
2017-12-17T13:00:06.816Z,57.40
2017-12-17T13:02:34.333Z,57.50
2017-12-17T13:05:02.626Z,57.60
2017-12-17T13:07:30.145Z,57.60
2017-12-17T13:09:57.702Z,57.70
2017-12-17T13:12:25.218Z,57.50
2017-12-17T13:14:52.753Z,58.00
2017-12-17T13:17:20.292Z,57.10
2017-12-17T13:19:48.580Z,57.40
2017-12-17T13:22:16.100Z,57.40
2017-12-17T13:24:43.638Z,57.30
2017-12-17T13:27:11.184Z,57.30
2017-12-17T13:29:38.701Z,57.30
2017-12-17T13:32:06.978Z,57.70
2017-12-17T13:34:35.260Z,57.70
2017-12-17T13:37:02.782Z,57.60
2017-12-17T13:39:30.327Z,57.60
2017-12-17T13:41:57.822Z,57.80
2017-12-17T13:44:26.114Z,58.00
2017-12-17T13:46:53.650Z,58.00
2017-12-17T13:49:21.217Z,58.00
2017-12-17T13:51:49.498Z,58.30
2017-12-17T13:54:17.009Z,58.30
2017-12-17T13:56:44.562Z,58.50
2017-12-17T13:59:12.109Z,58.40
2017-12-17T14:01:39.669Z,58.60
2017-12-17T14:04:07.202Z,58.70
2017-12-17T14:06:34.734Z,58.60
2017-12-17T14:09:03.005Z,58.80
2017-12-17T14:11:31.300Z,58.80
2017-12-17T14:13:58.837Z,58.80
2017-12-17T14:16:27.113Z,58.90
2017-12-17T14:18:55.404Z,59.10
2017-12-17T14:21:22.912Z,59.10
2017-12-17T14:23:50.433Z,59.10
2017-12-17T14:26:17.954Z,58.90
2017-12-17T14:28:46.256Z,58.50
2017-12-17T14:31:13.762Z,58.80
2017-12-17T14:33:41.318Z,59.00
2017-12-17T14:36:08.824Z,59.10
2017-12-17T14:38:42.995Z,59.30
2017-12-17T14:41:10.504Z,59.30
2017-12-17T14:43:38.055Z,59.40
2017-12-17T14:46:05.576Z,59.30
2017-12-17T14:48:33.109Z,59.40
2017-12-17T14:51:00.657Z,59.30
2017-12-17T14:53:28.221Z,59.00
2017-12-17T14:55:55.870Z,59.10
2017-12-17T14:58:23.390Z,59.10
2017-12-17T15:00:51.683Z,58.70
2017-12-17T15:03:19.212Z,58.70
2017-12-17T15:05:46.748Z,58.60
2017-12-17T15:08:14.249Z,58.60
2017-12-17T15:10:42.553Z,58.60
2017-12-17T15:13:10.082Z,58.60
2017-12-17T15:15:38.351Z,58.80
2017-12-17T15:18:06.678Z,58.70
2017-12-17T15:20:34.177Z,58.70
2017-12-17T15:23:02.478Z,58.50
2017-12-17T15:25:30.010Z,58.50
2017-12-17T15:27:58.307Z,58.80
2017-12-17T15:30:25.869Z,58.70
2017-12-17T15:32:53.383Z,58.50
2017-12-17T15:35:20.913Z,58.40
2017-12-17T15:37:48.481Z,59.10
2017-12-17T15:40:15.981Z,58.50
2017-12-17T15:42:44.256Z,58.40
2017-12-17T15:45:12.537Z,58.50
2017-12-17T15:47:40.814Z,58.40
2017-12-17T15:50:09.126Z,58.50
2017-12-17T15:52:36.633Z,58.40
2017-12-17T15:55:05.017Z,58.70
2017-12-17T15:57:33.335Z,58.70
2017-12-17T16:00:00.857Z,58.70
2017-12-17T16:02:29.176Z,58.60
2017-12-17T16:04:56.708Z,58.60
2017-12-17T16:07:24.949Z,58.80
2017-12-17T16:09:53.252Z,58.90
2017-12-17T16:12:20.756Z,58.80
2017-12-17T16:14:48.288Z,58.90
2017-12-17T16:17:15.813Z,58.90
2017-12-17T16:19:44.108Z,59.10
2017-12-17T16:22:11.733Z,59.10
2017-12-17T16:24:39.236Z,59.10
2017-12-17T16:27:06.769Z,59.10
2017-12-17T16:29:35.045Z,59.00
2017-12-17T16:32:03.463Z,59.00
2017-12-17T16:34:30.972Z,58.90
2017-12-17T16:36:59.256Z,58.90
2017-12-17T16:39:27.578Z,58.80
2017-12-17T16:41:55.201Z,58.80
2017-12-17T16:44:22.723Z,58.90
2017-12-17T16:46:50.227Z,58.80
2017-12-17T16:49:17.783Z,58.90
2017-12-17T16:51:45.292Z,58.90
2017-12-17T16:54:12.835Z,59.10
2017-12-17T16:56:40.394Z,59.60
2017-12-17T16:59:07.904Z,59.30
2017-12-17T17:01:35.470Z,59.50
2017-12-17T17:04:03.018Z,59.50
2017-12-17T17:06:30.573Z,59.50
2017-12-17T17:08:58.852Z,59.80
2017-12-17T17:11:26.414Z,59.80
2017-12-17T17:13:54.004Z,60.00
2017-12-17T17:16:21.629Z,60.10
2017-12-17T17:18:49.943Z,60.20
2017-12-17T17:21:17.460Z,60.10
2017-12-17T17:23:45.784Z,60.30
2017-12-17T17:26:13.305Z,60.20
2017-12-17T17:28:40.813Z,60.40
2017-12-17T17:31:08.349Z,60.80
2017-12-17T17:33:35.854Z,61.00
2017-12-17T17:36:04.148Z,61.30
2017-12-17T17:38:31.655Z,61.30
2017-12-17T17:40:59.234Z,61.50
2017-12-17T17:43:26.760Z,61.70
2017-12-17T17:45:54.470Z,61.90
2017-12-17T17:48:22.065Z,62.00
2017-12-17T17:50:49.596Z,62.10
2017-12-17T17:53:17.924Z,62.60
2017-12-17T17:55:45.476Z,62.60
2017-12-17T17:58:13.024Z,62.70
2017-12-17T18:00:40.557Z,62.90
2017-12-17T18:03:08.120Z,63.20
2017-12-17T18:05:35.680Z,63.00
2017-12-17T18:08:03.207Z,63.20
2017-12-17T18:10:31.547Z,63.20
2017-12-17T18:12:59.125Z,63.20
2017-12-17T18:15:26.635Z,63.20
2017-12-17T18:17:54.416Z,63.30
2017-12-17T18:20:21.953Z,63.50
2017-12-17T18:22:49.490Z,63.60
2017-12-17T18:25:17.793Z,64.60
2017-12-17T18:27:45.351Z,63.70
2017-12-17T18:30:12.853Z,63.90
2017-12-17T18:32:40.396Z,63.90
2017-12-17T18:35:07.922Z,63.80
2017-12-17T18:37:35.441Z,63.70
2017-12-17T18:40:03.745Z,63.50
2017-12-17T18:42:31.253Z,63.50
2017-12-17T18:44:58.849Z,63.60
2017-12-17T18:47:27.166Z,63.70
2017-12-17T18:49:54.685Z,63.70
2017-12-17T18:52:23.101Z,63.80
2017-12-17T18:54:50.714Z,63.60
2017-12-17T18:57:19.096Z,63.20
2017-12-17T18:59:47.457Z,62.90
2017-12-17T19:02:15.067Z,62.90
2017-12-17T19:04:42.688Z,63.00
2017-12-17T19:07:11.093Z,62.80
2017-12-17T19:09:38.828Z,62.70
2017-12-17T19:12:07.246Z,62.60
2017-12-17T19:14:34.905Z,62.50
2017-12-17T19:17:02.669Z,62.10
2017-12-17T19:19:30.256Z,62.00
2017-12-17T19:21:58.046Z,61.10
2017-12-17T19:24:25.856Z,61.10
2017-12-17T19:26:53.522Z,60.80
2017-12-17T19:29:21.148Z,61.60
2017-12-17T19:31:49.565Z,60.40
2017-12-17T19:34:17.223Z,60.40
2017-12-17T19:36:44.922Z,60.40
2017-12-17T19:39:12.584Z,60.20
2017-12-17T19:41:40.340Z,59.80
2017-12-17T19:44:07.986Z,59.80
2017-12-17T19:46:35.702Z,59.80
2017-12-17T19:49:03.386Z,59.70
2017-12-17T19:51:31.272Z,60.00
2017-12-17T19:53:59.026Z,59.80
2017-12-17T19:56:26.846Z,59.90
2017-12-17T19:58:55.272Z,59.70
2017-12-17T20:01:22.962Z,59.60
2017-12-17T20:03:50.690Z,59.70
2017-12-17T20:06:18.590Z,59.90
2017-12-17T20:08:46.533Z,59.60
2017-12-17T20:11:14.213Z,59.70
2017-12-17T20:13:41.921Z,59.70
2017-12-17T20:16:09.556Z,59.70
2017-12-17T20:18:38.044Z,59.20
2017-12-17T20:21:06.576Z,59.20
2017-12-17T20:23:34.435Z,59.20
2017-12-17T20:26:02.191Z,59.20
2017-12-17T20:28:30.086Z,59.20
2017-12-17T20:30:57.965Z,59.10
2017-12-17T20:33:25.774Z,59.20
2017-12-17T20:35:53.442Z,59.50
2017-12-17T20:38:21.080Z,59.60
2017-12-17T20:40:49.458Z,59.10
2017-12-17T20:43:18.148Z,59.20
2017-12-17T20:45:45.853Z,59.20
2017-12-17T20:48:13.497Z,59.70
2017-12-17T20:50:41.915Z,59.10
2017-12-17T20:53:09.598Z,59.10
2017-12-17T20:55:37.361Z,59.20
2017-12-17T20:58:04.996Z,58.80
2017-12-17T21:00:32.701Z,58.80
2017-12-17T21:03:00.332Z,58.70
2017-12-17T21:05:27.992Z,58.70
2017-12-17T21:07:56.572Z,58.40
2017-12-17T21:10:25.132Z,58.30
2017-12-17T21:12:52.737Z,58.20
2017-12-17T21:15:21.026Z,58.10
2017-12-17T21:17:48.545Z,58.10
2017-12-17T21:20:16.066Z,58.00
2017-12-17T21:22:43.589Z,57.30
2017-12-17T21:25:11.122Z,57.80
2017-12-17T21:27:38.666Z,58.20
2017-12-17T21:30:06.971Z,58.30
2017-12-17T21:32:35.242Z,58.20
2017-12-17T21:35:02.800Z,58.10
2017-12-17T21:37:31.107Z,58.50
2017-12-17T21:39:58.689Z,58.40
2017-12-17T21:42:26.265Z,58.70
2017-12-17T21:44:53.767Z,58.60
2017-12-17T21:47:21.322Z,58.80
2017-12-17T21:49:49.593Z,59.00
2017-12-17T21:52:17.106Z,58.90
2017-12-17T21:54:44.647Z,58.70
2017-12-17T21:57:12.173Z,58.80
2017-12-17T21:59:39.719Z,58.60
2017-12-17T22:02:08.026Z,59.00
2017-12-17T22:04:35.793Z,59.00
2017-12-17T22:07:03.299Z,58.80
2017-12-17T22:09:30.817Z,59.00
2017-12-17T22:11:58.355Z,64.80
2017-12-17T22:14:25.874Z,76.90
2017-12-17T22:16:53.409Z,60.30
2017-12-17T22:19:20.908Z,61.60
2017-12-17T22:21:49.194Z,58.50
2017-12-17T22:24:16.739Z,58.50
2017-12-17T22:26:45.044Z,58.80
2017-12-17T22:29:12.586Z,58.70
2017-12-17T22:31:40.086Z,58.90
2017-12-17T22:34:07.619Z,59.00
2017-12-17T22:36:35.120Z,59.00
2017-12-17T22:39:02.639Z,59.30
2017-12-17T22:41:30.159Z,59.30
2017-12-17T22:43:58.464Z,59.90
2017-12-17T22:46:25.978Z,59.90
2017-12-17T22:48:53.489Z,60.30
2017-12-17T22:51:21.044Z,60.60
2017-12-17T22:53:48.616Z,60.80
2017-12-17T22:56:16.167Z,60.90
2017-12-17T22:58:44.609Z,61.20
2017-12-17T23:01:12.197Z,61.10
2017-12-17T23:03:39.694Z,61.30
2017-12-17T23:06:07.213Z,61.30
2017-12-17T23:08:34.796Z,61.70
2017-12-17T23:11:02.299Z,61.90
2017-12-17T23:13:31.317Z,62.20
2017-12-17T23:15:58.817Z,62.20
2017-12-17T23:18:26.335Z,62.30
2017-12-17T23:20:53.844Z,62.30
2017-12-17T23:23:22.118Z,62.60
2017-12-17T23:25:50.424Z,63.40
2017-12-17T23:28:17.937Z,62.70
2017-12-17T23:30:45.484Z,62.70
2017-12-17T23:33:12.999Z,63.00
2017-12-17T23:35:40.491Z,63.10
2017-12-17T23:38:08.006Z,63.40
2017-12-17T23:40:35.512Z,63.10
2017-12-17T23:43:03.030Z,63.00
2017-12-17T23:45:30.519Z,63.30
2017-12-17T23:47:58.030Z,62.90
2017-12-17T23:50:26.302Z,62.90
2017-12-17T23:52:53.816Z,62.90
2017-12-17T23:55:21.332Z,62.80
2017-12-17T23:57:48.849Z,63.10
